Terminal Aerodrome Forecast
Issued by NWS

Home | Current Version | Previous Version | Text Only | Print | Product List | Glossary On
Versions: 1 2 3 4 5 6 7 8 9 10 11 12 13 14 15
000
FTUS43 KGRR 300500
TAFMKG
TAF
KMKG 300540Z 3006/3106 29015G21KT P6SM BKN050
     FM300800 28010KT P6SM SCT050
     FM310300 14004KT P6SM -RASN OVC050=

USA.gov is the U.S. government's official web portal to all federal, state and local government web resources and services.